Time;durP1;ratioP1;P1;durP2;ratioP2;P2;SDS_P1;SDS_P2;PMS_P1;PMS_P2;Temp;Humidity;BMP_temperature;BMP_pressure;BME280_temperature;BME280_humidity;BME280_pressure;Samples;Min_cycle;Max_cycle;Signal;HPM_P1;HPM_P2
2022/03/22 00:00:49;;;;;;;8.52;4.82;;;;;;;0.82;41.68;101270.03;4246175;33;35875;-79
2022/03/22 00:03:19;;;;;;;9.05;4.22;;;;;;;0.82;42.70;101262.34;4257360;33;34432;-79
2022/03/22 00:05:47;;;;;;;8.80;4.82;;;;;;;0.41;44.01;101275.22;4246033;33;34564;-79
2022/03/22 00:08:15;;;;;;;8.45;4.25;;;;;;;0.28;42.90;101278.72;4246632;33;33651;-78
2022/03/22 00:10:43;;;;;;;8.43;4.55;;;;;;;0.84;42.22;101268.44;4255238;33;35157;-80
2022/03/22 00:13:11;;;;;;;7.78;4.25;;;;;;;0.94;42.61;101273.34;4232479;33;34412;-79
2022/03/22 00:15:39;;;;;;;9.43;4.65;;;;;;;1.08;41.32;101269.03;4237375;33;33325;-79
2022/03/22 00:18:27;;;;;;;8.10;4.15;;;;;;;0.79;42.35;101269.84;4244764;33;33802;-79
2022/03/22 00:20:56;;;;;;;6.53;3.72;;;;;;;0.99;41.88;101272.72;4244572;33;34582;-79
2022/03/22 00:23:24;;;;;;;8.82;4.62;;;;;;;0.91;42.49;101268.03;4247193;33;35227;-79
2022/03/22 00:25:52;;;;;;;6.60;4.20;;;;;;;0.82;42.91;101262.34;4247133;33;33448;-79
2022/03/22 00:28:20;;;;;;;4.97;3.30;;;;;;;0.69;43.80;101272.66;4248473;33;33940;-79
2022/03/22 00:30:50;;;;;;;8.10;4.37;;;;;;;0.56;43.71;101265.91;4246608;33;35076;-79
2022/03/22 00:33:19;;;;;;;9.57;4.82;;;;;;;0.38;44.29;101275.94;4248300;33;34476;-79
2022/03/22 00:35:49;;;;;;;9.00;3.92;;;;;;;0.68;42.89;101266.66;4247542;33;34553;-79
2022/03/22 00:38:17;;;;;;;7.32;3.85;;;;;;;0.76;43.32;101262.00;4248267;33;34566;-79
2022/03/22 00:40:46;;;;;;;5.07;3.22;;;;;;;0.68;43.20;101265.78;4246826;33;35210;-79
2022/03/22 00:43:14;;;;;;;7.55;3.62;;;;;;;0.43;44.33;101264.28;4247198;33;35303;-79
2022/03/22 00:45:42;;;;;;;7.55;3.60;;;;;;;0.61;44.76;101263.63;4247625;33;34290;-79
2022/03/22 00:48:14;;;;;;;8.30;4.05;;;;;;;0.53;44.12;101261.50;4247197;33;33951;-78
2022/03/22 00:50:44;;;;;;;10.55;4.37;;;;;;;0.66;43.78;101267.37;4246387;33;35155;-79
2022/03/22 00:53:13;;;;;;;6.47;4.18;;;;;;;0.70;44.37;101267.63;4247123;33;34309;-79
2022/03/22 00:55:41;;;;;;;6.95;4.10;;;;;;;0.64;44.38;101261.28;4246371;33;34165;-79
2022/03/22 00:58:09;;;;;;;10.18;3.97;;;;;;;0.62;43.64;101262.81;4247138;33;33990;-79
2022/03/22 01:00:38;;;;;;;8.55;4.32;;;;;;;0.37;44.81;101263.91;4246746;33;35145;-79
2022/03/22 01:03:07;;;;;;;7.55;3.60;;;;;;;0.65;44.17;101263.03;4247023;33;33827;-79
2022/03/22 01:05:35;;;;;;;7.12;3.58;;;;;;;0.47;44.47;101265.34;4246650;33;34204;-79
2022/03/22 01:08:12;;;;;;;8.02;3.85;;;;;;;0.30;44.69;101259.19;4247122;33;34841;-79
2022/03/22 01:10:44;;;;;;;10.85;4.55;;;;;;;0.14;46.72;101262.47;4246360;33;35100;-79
2022/03/22 01:13:12;;;;;;;6.15;4.07;;;;;;;0.13;45.74;101248.81;4247084;33;34954;-79
2022/03/22 01:15:42;;;;;;;7.50;3.40;;;;;;;0.15;45.93;101254.91;4246452;33;33356;-79
2022/03/22 01:18:12;;;;;;;11.73;4.95;;;;;;;-0.01;44.53;101255.62;4246975;33;34744;-79
2022/03/22 01:20:46;;;;;;;5.97;3.33;;;;;;;0.39;45.48;101252.09;4233954;33;34337;-79
2022/03/22 01:23:15;;;;;;;7.07;3.50;;;;;;;0.47;45.06;101248.28;4246957;33;35275;-79
2022/03/22 01:25:43;;;;;;;10.05;4.32;;;;;;;0.46;44.58;101251.66;4247376;33;34589;-79
2022/03/22 01:28:13;;;;;;;10.00;3.45;;;;;;;0.39;45.12;101244.41;4246940;33;34091;-79
2022/03/22 01:30:41;;;;;;;12.57;5.10;;;;;;;0.26;45.37;101252.12;4246296;33;35172;-78
2022/03/22 01:33:11;;;;;;;12.23;4.57;;;;;;;0.41;44.54;101245.38;4247547;33;34428;-79
2022/03/22 01:35:40;;;;;;;7.93;4.03;;;;;;;0.48;45.91;101244.94;4247343;33;33433;-79
2022/03/22 01:38:08;;;;;;;8.82;4.40;;;;;;;0.23;46.41;101252.84;4258507;33;33710;-79
2022/03/22 01:40:37;;;;;;;9.45;4.10;;;;;;;0.37;46.46;101251.09;4241063;33;180726;-79
2022/03/22 01:43:06;;;;;;;8.48;4.28;;;;;;;0.24;45.81;101251.16;4246690;33;34682;-79
2022/03/22 01:45:34;;;;;;;8.00;3.90;;;;;;;0.47;45.86;101250.84;4246029;33;33255;-79
2022/03/22 01:48:04;;;;;;;9.38;4.57;;;;;;;0.23;46.24;101250.25;4247947;33;33964;-79
2022/03/22 01:50:32;;;;;;;7.70;4.03;;;;;;;-0.10;46.94;101238.81;4247251;33;34251;-79
2022/03/22 01:53:01;;;;;;;8.48;4.75;;;;;;;0.54;45.88;101240.19;4246776;33;35234;-79
2022/03/22 01:55:29;;;;;;;6.85;4.45;;;;;;;0.35;45.66;101235.66;4247244;33;33930;-79
2022/03/22 01:57:57;;;;;;;8.15;4.05;;;;;;;0.70;45.01;101238.53;4246773;33;33995;-79
2022/03/22 02:00:25;;;;;;;8.57;4.40;;;;;;;0.67;45.04;101235.78;4245258;33;35776;-79
2022/03/22 02:05:51;;;;;;;8.98;4.22;;;;;;;0.35;44.25;101234.75;4247289;33;33485;-79
2022/03/22 02:08:24;;;;;;;10.57;3.50;;;;;;;1.18;43.54;101226.81;4257640;33;34542;-79
2022/03/22 02:10:53;;;;;;;10.40;3.92;;;;;;;0.73;45.61;101228.47;4246066;33;35564;-79
2022/03/22 02:13:21;;;;;;;7.05;3.53;;;;;;;0.53;46.41;101225.62;4247603;33;34774;-79
2022/03/22 02:15:53;;;;;;;7.12;3.90;;;;;;;-0.06;47.66;101230.53;4247061;33;33632;-79
2022/03/22 02:18:24;;;;;;;9.13;3.87;;;;;;;0.48;46.92;101229.56;4245941;33;33822;-79
2022/03/22 02:20:53;;;;;;;6.07;3.67;;;;;;;0.75;45.23;101226.87;4247175;33;35891;-79
2022/03/22 02:23:33;;;;;;;6.85;3.87;;;;;;;1.01;42.86;101224.97;4247786;33;34546;-79
2022/03/22 02:26:01;;;;;;;6.00;3.35;;;;;;;0.75;43.91;101227.75;4247892;33;33333;-79
2022/03/22 02:28:29;;;;;;;10.70;4.20;;;;;;;-0.26;43.77;101227.59;4247706;33;34131;-79
2022/03/22 02:30:58;;;;;;;7.55;4.05;;;;;;;-0.21;44.29;101215.97;4247102;33;35036;-79
2022/03/22 02:33:26;;;;;;;9.95;4.22;;;;;;;0.52;46.35;101218.69;4247637;33;34932;-79
2022/03/22 02:35:53;;;;;;;6.37;3.70;;;;;;;-0.04;43.87;101222.12;4244972;33;34297;-79
2022/03/22 02:38:21;;;;;;;5.85;3.80;;;;;;;0.30;43.20;101219.09;4247504;33;34650;-79
2022/03/22 02:40:49;;;;;;;6.32;3.92;;;;;;;0.62;45.59;101217.59;4246725;33;35842;-79
2022/03/22 02:43:17;;;;;;;8.82;4.07;;;;;;;0.49;45.92;101221.06;4247433;33;34484;-79
2022/03/22 02:45:45;;;;;;;5.05;3.50;;;;;;;0.40;46.49;101228.22;4245545;33;33440;-79
2022/03/22 02:48:13;;;;;;;6.78;3.53;;;;;;;0.61;45.73;101220.06;4246594;33;33549;-79
2022/03/22 02:50:40;;;;;;;6.50;3.50;;;;;;;0.65;45.78;101219.44;4246019;33;35102;-79
2022/03/22 02:53:08;;;;;;;5.00;3.45;;;;;;;0.21;45.20;101220.19;4246824;33;34010;-79
2022/03/22 02:55:37;;;;;;;6.07;3.42;;;;;;;0.52;45.87;101228.97;4246741;33;33543;-79
2022/03/22 02:58:05;;;;;;;7.20;3.30;;;;;;;0.23;44.17;101224.66;4246779;33;34086;-79
2022/03/22 03:00:34;;;;;;;8.82;5.37;;;;;;;0.22;45.30;101225.44;4246789;33;34949;-79
2022/03/22 03:03:04;;;;;;;6.65;4.10;;;;;;;-0.44;45.46;101222.19;4233467;33;35102;-79
2022/03/22 03:05:33;;;;;;;9.85;4.90;;;;;;;0.07;45.73;101227.03;4233165;33;33685;-79
2022/03/22 03:08:01;;;;;;;7.93;4.50;;;;;;;-0.68;46.19;101228.28;4233460;33;33818;-79
2022/03/22 03:10:29;;;;;;;6.90;3.70;;;;;;;-0.50;46.78;101233.72;4233164;33;35044;-79
2022/03/22 03:12:59;;;;;;;7.40;4.07;;;;;;;0.31;44.07;101232.78;4246267;33;34163;-79
2022/03/22 03:15:28;;;;;;;9.05;4.28;;;;;;;-0.07;45.16;101233.84;4247232;33;33327;-79
2022/03/22 03:17:57;;;;;;;10.43;4.12;;;;;;;-0.69;48.79;101231.62;4247081;33;31857;-79
2022/03/22 03:20:25;;;;;;;9.32;3.55;;;;;;;-0.57;49.46;101233.28;4246274;33;35088;-79
2022/03/22 03:22:53;;;;;;;7.32;3.75;;;;;;;-0.22;47.87;101234.66;4245289;33;35181;-79
2022/03/22 03:25:21;;;;;;;5.12;3.12;;;;;;;0.11;47.89;101231.59;4247241;33;33340;-79
2022/03/22 03:27:49;;;;;;;8.27;3.80;;;;;;;0.18;45.39;101237.16;4246386;33;33932;-79
2022/03/22 03:30:17;;;;;;;7.28;4.03;;;;;;;0.33;45.25;101242.31;4247130;33;35036;-79
2022/03/22 03:32:46;;;;;;;6.55;4.20;;;;;;;0.27;45.05;101241.97;4245766;33;34468;-79
2022/03/22 03:35:14;;;;;;;9.55;5.28;;;;;;;0.54;42.81;101237.63;4247157;33;33744;-79
2022/03/22 03:37:43;;;;;;;12.63;4.30;;;;;;;-1.21;49.32;101242.75;4246491;33;34675;-79
2022/03/22 03:40:12;;;;;;;7.90;3.90;;;;;;;-0.05;44.88;101240.84;4245968;33;34646;-79
2022/03/22 03:42:45;;;;;;;10.35;4.32;;;;;;;0.33;44.30;101236.31;4246336;33;35336;-79
2022/03/22 03:48:00;;;;;;;5.68;3.42;;;;;;;0.17;45.04;101230.25;4242787;33;33932;-78
2022/03/22 03:50:29;;;;;;;7.93;4.60;;;;;;;0.35;44.92;101234.75;4245952;33;35277;-79
2022/03/22 03:52:56;;;;;;;9.38;5.07;;;;;;;0.62;43.49;101226.94;4245947;33;34400;-79
2022/03/22 03:55:24;;;;;;;6.20;3.78;;;;;;;0.06;42.55;101230.41;4246897;33;33390;-79
2022/03/22 03:57:52;;;;;;;9.73;4.95;;;;;;;0.51;45.07;101237.47;4247788;33;33933;-78
2022/03/22 04:00:20;;;;;;;8.15;3.97;;;;;;;-0.14;42.88;101236.81;4248432;33;35957;-78
2022/03/22 04:02:48;;;;;;;5.85;3.58;;;;;;;0.40;43.74;101243.59;4247585;33;34871;-79
2022/03/22 04:05:16;;;;;;;7.68;3.85;;;;;;;-0.07;44.34;101244.09;4248405;33;33437;-78
2022/03/22 04:07:43;;;;;;;6.95;3.62;;;;;;;0.33;43.79;101242.31;4246535;33;32339;-78
2022/03/22 04:10:11;;;;;;;8.73;4.18;;;;;;;-0.41;45.41;101247.09;4247580;33;35198;-78
2022/03/22 04:12:41;;;;;;;5.75;3.90;;;;;;;-0.58;43.48;101241.78;4247095;33;35220;-80
2022/03/22 04:15:09;;;;;;;6.28;3.37;;;;;;;-0.57;46.32;101248.66;4246204;33;34392;-79
2022/03/22 04:17:38;;;;;;;7.18;3.92;;;;;;;-0.48;47.74;101245.81;4248071;33;34740;-79
2022/03/22 04:20:07;;;;;;;6.15;3.33;;;;;;;0.05;46.74;101249.97;4247383;33;35191;-79
2022/03/22 04:22:35;;;;;;;8.27;3.97;;;;;;;0.03;46.54;101251.56;4248223;33;35218;-79
2022/03/22 04:25:04;;;;;;;9.48;2.87;;;;;;;-0.20;45.74;101250.13;4246287;33;33537;-78
2022/03/22 04:33:06;;;;;;;7.25;4.78;;;;;;;-0.79;47.54;101253.19;4248093;33;35256;-79
2022/03/22 04:35:34;;;;;;;9.75;4.72;;;;;;;-0.39;46.96;101264.34;4246298;33;33508;-78
2022/03/22 04:38:02;;;;;;;7.05;3.37;;;;;;;-0.22;46.75;101260.28;4248295;33;33811;-78
2022/03/22 04:40:30;;;;;;;6.90;3.72;;;;;;;0.03;46.18;101266.94;4246223;33;35724;-77
2022/03/22 04:42:58;;;;;;;5.90;4.00;;;;;;;-0.33;45.87;101271.50;4246866;33;34441;-77
2022/03/22 04:45:26;;;;;;;6.10;3.50;;;;;;;0.26;46.42;101265.81;4246682;33;33754;-77
2022/03/22 04:47:54;;;;;;;6.47;4.07;;;;;;;-0.11;47.57;101260.94;4249520;33;34721;-76
2022/03/22 04:50:21;;;;;;;7.50;4.00;;;;;;;0.10;46.47;101271.66;4247320;33;35127;-79
2022/03/22 04:58:27;;;;;;;7.85;3.90;;;;;;;0.25;46.40;101274.31;4247831;33;33607;-79
2022/03/22 05:00:55;;;;;;;7.72;4.32;;;;;;;0.06;45.77;101273.94;4245898;33;35282;-79
2022/03/22 05:03:23;;;;;;;7.65;4.53;;;;;;;0.30;46.51;101272.00;4257977;33;34400;-78
2022/03/22 05:08:38;;;;;;;11.45;5.07;;;;;;;0.27;46.81;101272.72;4246884;33;33911;-78
2022/03/22 05:11:06;;;;;;;8.65;4.78;;;;;;;0.26;48.61;101277.75;4257171;33;34867;-78
2022/03/22 05:13:34;;;;;;;10.13;5.30;;;;;;;0.08;47.37;101278.38;4247885;33;35093;-78
2022/03/22 05:16:03;;;;;;;8.52;4.35;;;;;;;-0.33;46.67;101274.06;4257308;33;33570;-78
2022/03/22 05:18:31;;;;;;;11.25;5.47;;;;;;;0.24;49.74;101276.75;4247576;33;33959;-78
2022/03/22 05:20:59;;;;;;;9.35;4.90;;;;;;;0.42;50.06;101277.87;4245630;33;35950;-79
2022/03/22 05:23:27;;;;;;;15.45;5.32;;;;;;;1.10;48.64;101276.81;4257598;33;34173;-79
2022/03/22 05:25:55;;;;;;;14.60;6.00;;;;;;;2.03;43.44;101265.81;4247273;33;34557;-79
2022/03/22 05:28:22;;;;;;;37.05;7.12;;;;;;;3.81;43.70;101270.56;4247870;33;34662;-78
2022/03/22 05:30:50;;;;;;;13.50;5.35;;;;;;;5.49;37.91;101267.69;4246651;33;35084;-79
2022/03/22 05:33:18;;;;;;;9.48;5.00;;;;;;;6.53;37.72;101267.37;4247779;33;34243;-79
2022/03/22 05:35:46;;;;;;;10.40;5.18;;;;;;;6.63;38.23;101267.75;4246122;33;34440;-79
2022/03/22 05:38:15;;;;;;;10.32;4.93;;;;;;;7.99;34.81;101272.31;4247750;33;33946;-79
2022/03/22 05:40:43;;;;;;;9.02;5.30;;;;;;;7.59;38.13;101273.66;4245771;33;34906;-79
2022/03/22 05:43:11;;;;;;;12.63;5.82;;;;;;;7.77;36.54;101273.34;4246609;33;34057;-79
2022/03/22 05:45:39;;;;;;;11.18;5.37;;;;;;;7.45;37.26;101274.88;4246938;33;33388;-79
2022/03/22 05:48:08;;;;;;;11.05;5.57;;;;;;;7.15;35.50;101270.47;4247632;33;33959;-79
2022/03/22 05:50:36;;;;;;;7.75;5.53;;;;;;;7.61;38.24;101279.75;4246708;33;35731;-79
2022/03/22 05:53:04;;;;;;;12.55;5.87;;;;;;;7.84;38.42;101279.62;4247946;33;34344;-80
2022/03/22 05:55:32;;;;;;;10.15;4.90;;;;;;;7.48;36.94;101280.19;4257411;33;33676;-80
2022/03/22 05:58:00;;;;;;;12.57;6.05;;;;;;;7.09;39.66;101283.19;4246994;33;33447;-80
2022/03/22 06:00:28;;;;;;;18.62;5.82;;;;;;;7.32;40.85;101279.66;4246548;33;35980;-80
2022/03/22 06:02:56;;;;;;;12.27;5.22;;;;;;;7.01;40.81;101291.56;4247842;33;34539;-80
2022/03/22 06:05:24;;;;;;;12.48;5.93;;;;;;;7.64;39.84;101298.03;4246053;33;33441;-79
2022/03/22 06:07:52;;;;;;;13.65;5.82;;;;;;;6.92;42.63;101293.84;4246747;33;34130;-80
2022/03/22 06:10:20;;;;;;;11.55;6.03;;;;;;;7.62;42.20;101297.06;4246953;33;35191;-79
2022/03/22 06:12:51;;;;;;;11.80;5.50;;;;;;;7.72;42.33;101293.94;4247468;33;35203;-79
2022/03/22 06:15:21;;;;;;;10.35;4.80;;;;;;;7.95;44.01;101299.88;4245978;33;33255;-80
2022/03/22 06:17:51;;;;;;;12.15;6.00;;;;;;;8.54;42.06;101291.28;4247727;33;34002;-80
2022/03/22 06:20:21;;;;;;;12.52;5.97;;;;;;;9.22;42.50;101293.16;4244840;33;34171;-80
2022/03/22 06:22:49;;;;;;;8.80;5.78;;;;;;;9.55;41.59;101295.72;4247820;33;34583;-80
2022/03/22 06:25:18;;;;;;;13.90;7.07;;;;;;;9.65;39.62;101289.91;4245915;33;33641;-80
2022/03/22 06:27:49;;;;;;;12.98;6.30;;;;;;;9.59;37.42;101300.16;4245836;33;33940;-80
2022/03/22 06:30:17;;;;;;;11.60;6.70;;;;;;;10.34;38.58;101293.25;4245870;33;35036;-79
2022/03/22 06:32:48;;;;;;;14.07;7.72;;;;;;;10.84;35.35;101297.75;4247691;33;34487;-79
2022/03/22 06:35:18;;;;;;;15.55;7.32;;;;;;;10.29;29.21;101294.84;4246871;33;33945;-79
2022/03/22 06:37:47;;;;;;;12.63;6.82;;;;;;;10.95;28.86;101295.34;4247686;33;33246;-80
2022/03/22 06:40:17;;;;;;;13.68;7.80;;;;;;;11.75;28.31;101299.34;4246109;33;36008;-80
2022/03/22 06:42:45;;;;;;;14.77;7.37;;;;;;;12.45;27.32;101303.88;4246467;33;34233;-78
2022/03/22 06:45:14;;;;;;;16.80;9.95;;;;;;;13.03;25.39;101296.72;4246295;33;33390;-79
2022/03/22 06:47:43;;;;;;;19.52;9.05;;;;;;;12.40;28.02;101306.44;4243990;33;33983;-78
2022/03/22 06:50:12;;;;;;;19.02;9.43;;;;;;;12.66;28.51;101304.16;4243834;33;35181;-78
2022/03/22 06:52:41;;;;;;;19.20;8.07;;;;;;;13.24;24.28;101303.91;4246076;33;34464;-80
2022/03/22 06:55:10;;;;;;;13.80;8.20;;;;;;;13.07;23.33;101295.88;4247623;33;34112;-78
2022/03/22 06:57:38;;;;;;;13.07;7.65;;;;;;;13.18;23.21;101292.50;4246803;33;33824;-79
2022/03/22 07:00:11;;;;;;;15.80;8.85;;;;;;;12.90;24.17;101294.87;4257957;33;34965;-80
2022/03/22 07:02:40;;;;;;;16.05;8.93;;;;;;;13.29;23.01;101296.12;4245812;33;32360;-78
2022/03/22 07:05:09;;;;;;;12.68;7.65;;;;;;;13.80;23.40;101305.31;4247551;33;33441;-81
2022/03/22 07:07:38;;;;;;;15.02;8.80;;;;;;;13.78;23.27;101301.81;4243890;33;34152;-78
2022/03/22 07:10:08;;;;;;;16.77;8.48;;;;;;;14.00;22.55;101310.69;4246162;33;35845;-78
2022/03/22 07:12:56;;;;;;;13.82;8.77;;;;;;;14.56;21.94;101306.66;4246292;33;33862;-78
2022/03/22 07:15:35;;;;;;;16.17;8.50;;;;;;;14.41;22.03;101299.56;4233805;33;32596;-81
2022/03/22 07:18:06;;;;;;;14.23;8.68;;;;;;;14.85;21.03;101300.66;4234560;33;34121;-77
2022/03/22 07:20:35;;;;;;;14.98;9.13;;;;;;;14.20;22.16;101297.72;4246062;33;35042;-78
2022/03/22 07:23:03;;;;;;;16.17;9.32;;;;;;;13.77;21.99;101307.91;4244736;33;35297;-80
2022/03/22 07:25:33;;;;;;;16.55;9.55;;;;;;;14.72;21.27;101297.13;4244081;33;33200;-80
2022/03/22 07:28:01;;;;;;;17.30;9.32;;;;;;;15.56;20.57;101306.03;4245946;33;34167;-79
2022/03/22 07:30:29;;;;;;;18.10;9.52;;;;;;;14.45;21.43;101303.09;4244482;33;35922;-83
2022/03/22 07:32:57;;;;;;;16.90;9.90;;;;;;;15.25;21.21;101308.63;4246986;33;34468;-81
2022/03/22 07:35:25;;;;;;;20.55;10.88;;;;;;;14.95;20.75;101301.59;4256737;33;33410;-83
2022/03/22 07:38:02;;;;;;;28.27;11.52;;;;;;;16.49;19.33;101310.28;4242743;33;33720;-81
2022/03/22 07:40:35;;;;;;;20.37;11.68;;;;;;;17.02;18.15;101300.44;4234299;33;35785;-82
2022/03/22 07:43:03;;;;;;;24.40;11.07;;;;;;;17.01;17.76;101303.97;4247050;33;34255;-82
2022/03/22 07:45:31;;;;;;;19.37;11.95;;;;;;;17.15;18.15;101303.00;4245243;33;33686;-78
2022/03/22 07:47:59;;;;;;;20.73;12.37;;;;;;;17.07;19.06;101299.56;4247297;33;34875;-78
2022/03/22 07:53:13;;;;;;;23.00;11.70;;;;;;;16.62;18.12;101305.88;4232822;33;34262;-82
2022/03/22 07:55:43;;;;;;;19.98;11.85;;;;;;;17.75;17.32;101313.06;4233424;33;33583;-81
2022/03/22 07:58:11;;;;;;;24.12;12.30;;;;;;;16.86;17.57;101310.16;4246865;33;34137;-78
2022/03/22 08:00:41;;;;;;;21.92;12.35;;;;;;;17.67;17.40;101313.16;4246087;33;35066;-77
2022/03/22 08:03:13;;;;;;;27.27;12.00;;;;;;;17.08;17.64;101312.69;4246807;33;34451;-82
2022/03/22 08:05:44;;;;;;;22.40;12.75;;;;;;;16.53;18.29;101312.91;4245958;33;33677;-84
2022/03/22 08:08:14;;;;;;;19.12;10.70;;;;;;;17.49;17.02;101314.19;4247012;33;33854;-85
2022/03/22 08:11:02;;;;;;;23.00;11.95;;;;;;;17.44;17.14;101315.97;4244944;33;35866;-82
2022/03/22 08:13:30;;;;;;;25.83;12.65;;;;;;;18.00;16.93;101312.00;4245387;33;35236;-80
2022/03/22 08:15:58;;;;;;;21.37;12.07;;;;;;;17.73;17.23;101302.53;4245771;33;33615;-85
2022/03/22 08:18:26;;;;;;;41.40;13.43;;;;;;;17.59;18.14;101304.41;4246415;33;34767;-79
2022/03/22 08:20:54;;;;;;;23.00;12.88;;;;;;;17.40;17.65;101301.06;4244918;33;36010;-84
2022/03/22 08:23:22;;;;;;;25.30;14.25;;;;;;;18.17;16.63;101300.41;4245710;33;35310;-79
2022/03/22 08:25:51;;;;;;;21.85;12.00;;;;;;;19.03;16.18;101296.72;4245807;33;33564;-79
2022/03/22 08:28:19;;;;;;;22.60;12.10;;;;;;;18.36;17.48;101296.66;4245656;33;34012;-79
2022/03/22 08:30:47;;;;;;;23.58;11.40;;;;;;;18.92;17.12;101293.38;4245908;33;35903;-78
2022/03/22 08:33:15;;;;;;;20.30;12.57;;;;;;;18.78;16.50;101293.53;4246302;33;34585;-85
2022/03/22 08:35:45;;;;;;;23.48;12.32;;;;;;;19.04;16.06;101294.94;4245670;33;33723;-80
2022/03/22 08:38:20;;;;;;;24.83;12.02;;;;;;;17.96;16.74;101294.44;4231162;33;33743;-83
2022/03/22 08:40:49;;;;;;;23.40;13.68;;;;;;;18.10;17.82;101285.53;4240011;33;34998;-79
2022/03/22 08:43:21;;;;;;;18.52;11.02;;;;;;;19.21;16.76;101294.72;4247052;33;34362;-83
2022/03/22 08:45:49;;;;;;;25.60;12.05;;;;;;;18.76;17.34;101293.53;4247634;33;33462;-80
2022/03/22 08:48:17;;;;;;;22.55;12.73;;;;;;;19.47;16.29;101287.25;4247187;33;34680;-79
2022/03/22 08:50:49;;;;;;;23.87;12.80;;;;;;;20.08;16.00;101287.09;4246981;33;34292;-80
2022/03/22 08:53:19;;;;;;;23.12;14.25;;;;;;;19.63;16.45;101292.28;4233102;33;34540;-84
2022/03/22 08:55:52;;;;;;;22.60;12.37;;;;;;;19.66;16.78;101286.94;4234062;33;33863;-81
2022/03/22 08:58:20;;;;;;;24.27;13.48;;;;;;;19.88;15.38;101280.41;4235209;33;33876;-83
2022/03/22 09:00:48;;;;;;;17.33;11.93;;;;;;;18.41;17.04;101277.28;4246243;33;35295;-80
2022/03/22 09:03:19;;;;;;;18.92;12.57;;;;;;;19.04;17.55;101274.72;4247846;33;34472;-83
2022/03/22 09:08:36;;;;;;;19.60;11.23;;;;;;;20.33;15.49;101279.56;4248250;33;34753;-82
2022/03/22 09:11:05;;;;;;;20.88;13.45;;;;;;;18.92;16.21;101266.97;4246337;33;35085;-80
2022/03/22 09:13:38;;;;;;;64.35;30.85;;;;;;;19.24;16.67;101271.75;4246028;33;35004;-83
2022/03/22 09:16:12;;;;;;;72.32;35.88;;;;;;;19.33;17.16;101266.31;4247421;33;34469;-81
2022/03/22 09:18:40;;;;;;;24.23;12.93;;;;;;;18.37;17.25;101269.41;4246870;33;34787;-78
2022/03/22 09:21:10;;;;;;;18.70;11.70;;;;;;;19.99;16.63;101269.62;4245597;33;34948;-78
2022/03/22 09:23:40;;;;;;;19.95;12.48;;;;;;;20.81;15.67;101262.69;4248091;33;34351;-79
2022/03/22 09:26:08;;;;;;;20.60;12.10;;;;;;;19.68;15.74;101259.59;4246270;33;32288;-78
2022/03/22 09:28:37;;;;;;;22.80;11.95;;;;;;;21.15;15.04;101253.97;4246989;33;34748;-81
2022/03/22 09:31:07;;;;;;;21.33;11.10;;;;;;;20.50;14.72;101258.03;4246642;33;36741;-79
2022/03/22 09:33:36;;;;;;;20.17;11.20;;;;;;;20.36;15.40;101252.16;4241906;33;34360;-87
2022/03/22 09:36:04;;;;;;;19.10;11.70;;;;;;;20.86;14.58;101246.69;4247640;33;33134;-79
2022/03/22 09:38:31;;;;;;;21.92;12.27;;;;;;;20.45;14.48;101247.56;4247833;33;33443;-83
2022/03/22 09:41:00;;;;;;;18.70;11.07;;;;;;;21.47;13.76;101249.69;4247290;33;35175;-82
2022/03/22 09:43:28;;;;;;;19.95;11.15;;;;;;;20.05;15.48;101252.78;4247156;33;35188;-81
2022/03/22 09:45:57;;;;;;;20.02;12.02;;;;;;;20.79;15.07;101251.28;4247152;33;33598;-82
2022/03/22 09:48:27;;;;;;;23.05;12.48;;;;;;;20.29;15.00;101245.25;4247148;33;33997;-81
2022/03/22 09:53:45;;;;;;;19.02;11.85;;;;;;;22.44;14.00;101245.25;4241962;33;34209;-81
2022/03/22 09:56:13;;;;;;;18.77;11.23;;;;;;;22.21;14.42;101245.06;4244063;33;33420;-77
2022/03/22 09:58:41;;;;;;;18.25;11.70;;;;;;;22.17;13.90;101236.31;4246276;33;34776;-83
2022/03/22 10:01:10;;;;;;;18.98;12.30;;;;;;;21.62;14.84;101237.81;4246644;33;35927;-79
2022/03/22 10:03:39;;;;;;;26.67;15.48;;;;;;;21.66;14.95;101235.03;4247788;33;32877;-89
2022/03/22 10:06:07;;;;;;;28.17;12.07;;;;;;;23.17;14.55;101235.09;4247917;33;34333;-83
2022/03/22 10:08:48;;;;;;;18.90;11.43;;;;;;;23.79;12.80;101234.75;4247198;33;32274;-84
2022/03/22 10:11:17;;;;;;;20.85;13.27;;;;;;;22.96;13.75;101225.97;4247573;33;35125;-82
2022/03/22 10:13:55;;;;;;;26.73;16.50;;;;;;;22.61;13.48;101226.19;4247407;33;35255;-84
2022/03/22 10:16:23;;;;;;;20.48;13.73;;;;;;;23.03;13.73;101227.53;4245538;33;33565;-78
2022/03/22 10:18:51;;;;;;;17.98;11.12;;;;;;;22.78;14.00;101212.38;4245046;33;34324;-84
2022/03/22 10:21:21;;;;;;;28.27;19.90;;;;;;;23.37;14.35;101222.00;4245783;33;34330;-78
2022/03/22 10:23:54;;;;;;;22.23;14.77;;;;;;;23.76;14.53;101213.56;4233371;33;34502;-78
2022/03/22 10:26:33;;;;;;;15.80;10.73;;;;;;;24.56;13.06;101220.41;4233424;33;33610;-78
2022/03/22 10:29:01;;;;;;;21.55;11.00;;;;;;;24.46;12.78;101211.00;4240149;33;35087;-86
2022/03/22 10:31:33;;;;;;;23.00;12.73;;;;;;;23.19;12.82;101218.19;4247028;33;36116;-78
2022/03/22 10:34:02;;;;;;;21.30;11.52;;;;;;;23.06;12.93;101211.53;4246498;33;35336;-79
2022/03/22 10:36:35;;;;;;;27.10;12.40;;;;;;;22.39;13.50;101207.38;4245002;33;33825;-78
2022/03/22 10:39:12;;;;;;;21.15;13.02;;;;;;;22.78;13.09;101207.06;4247664;33;33947;-78
2022/03/22 10:41:43;;;;;;;23.20;13.45;;;;;;;22.85;13.55;101208.62;4234228;33;33529;-85
2022/03/22 10:44:17;;;;;;;19.17;13.32;;;;;;;23.33;14.09;101203.53;4246607;33;33768;-85
2022/03/22 10:46:46;;;;;;;21.37;11.93;;;;;;;21.85;14.13;101202.72;4246988;33;33696;-79
2022/03/22 10:49:19;;;;;;;17.37;10.98;;;;;;;22.88;13.03;101203.19;4246701;33;34929;-83
2022/03/22 10:52:08;;;;;;;18.75;11.20;;;;;;;22.93;13.62;101195.09;4246081;33;35230;-86
2022/03/22 10:54:36;;;;;;;20.00;12.80;;;;;;;21.82;13.43;101192.22;4246324;33;33701;-85
2022/03/22 10:57:06;;;;;;;20.35;12.25;;;;;;;22.40;14.09;101185.22;4245974;33;34422;-87
2022/03/22 10:59:34;;;;;;;19.75;12.98;;;;;;;22.45;14.05;101187.75;4246006;33;34105;-80
2022/03/22 11:02:03;;;;;;;21.75;12.60;;;;;;;23.57;13.72;101184.09;4245646;33;34923;-87
2022/03/22 11:04:32;;;;;;;17.00;10.75;;;;;;;23.89;13.30;101183.88;4246489;33;34649;-88
2022/03/22 11:07:02;;;;;;;17.02;10.23;;;;;;;23.50;13.79;101174.59;4245938;33;34403;-86
2022/03/22 11:09:31;;;;;;;17.17;11.45;;;;;;;23.95;12.86;101171.22;4246300;33;34083;-79
2022/03/22 11:12:01;;;;;;;21.55;12.27;;;;;;;24.37;13.59;101161.66;4245620;33;34866;-79
2022/03/22 11:14:29;;;;;;;17.65;11.63;;;;;;;23.75;13.31;101160.41;4246586;33;35096;-80
2022/03/22 11:16:58;;;;;;;22.40;12.88;;;;;;;24.82;13.74;101162.59;4247431;33;33656;-85
2022/03/22 11:19:26;;;;;;;14.63;8.93;;;;;;;25.25;11.99;101161.66;4246334;33;33668;-78
2022/03/22 11:22:03;;;;;;;16.92;10.32;;;;;;;25.39;10.42;101157.53;4246173;33;34989;-80
2022/03/22 11:24:31;;;;;;;19.65;11.50;;;;;;;24.22;11.42;101152.47;4246518;33;34337;-85
2022/03/22 11:27:06;;;;;;;17.48;11.63;;;;;;;25.61;10.67;101146.81;4244663;33;33854;-88
2022/03/22 11:29:33;;;;;;;20.05;11.68;;;;;;;26.52;11.26;101146.13;4245581;33;33984;-79
2022/03/22 11:34:53;;;;;;;25.10;14.43;;;;;;;25.86;11.43;101135.88;4244813;33;34192;-79
2022/03/22 11:37:32;;;;;;;15.52;10.38;;;;;;;25.00;12.14;101131.63;4247111;33;33297;-87
2022/03/22 11:42:56;;;;;;;22.48;12.60;;;;;;;26.88;10.52;101126.59;4247135;33;35838;-86
2022/03/22 11:45:27;;;;;;;29.12;16.45;;;;;;;25.46;11.02;101125.19;4245017;33;34261;-80
2022/03/22 11:47:56;;;;;;;19.85;12.18;;;;;;;26.67;11.59;101124.03;4247072;33;33649;-79
2022/03/22 11:50:24;;;;;;;17.25;11.23;;;;;;;26.08;11.95;101122.41;4244581;33;32074;-79
2022/03/22 11:52:58;;;;;;;21.62;11.07;;;;;;;24.25;12.63;101116.88;4245902;33;35175;-80
2022/03/22 11:55:26;;;;;;;15.75;10.80;;;;;;;25.05;12.63;101101.16;4246160;33;34427;-79
2022/03/22 11:58:05;;;;;;;20.45;10.75;;;;;;;24.48;13.56;101114.19;4246828;33;34383;-80
2022/03/22 12:00:42;;;;;;;20.62;11.02;;;;;;;24.63;12.41;101102.03;4246089;33;34807;-78
2022/03/22 12:03:12;;;;;;;16.42;10.60;;;;;;;22.96;12.71;101099.34;4245759;33;35933;-78
2022/03/22 12:05:41;;;;;;;23.92;12.05;;;;;;;23.09;12.75;101098.03;4246007;33;34472;-79